Time;durP1;ratioP1;P1;durP2;ratioP2;P2;SDS_P1;SDS_P2;PMS_P1;PMS_P2;Temp;Humidity;BMP_temperature;BMP_pressure;BME280_temperature;BME280_humidity;BME280_pressure;Samples;Min_cycle;Max_cycle;Signal;HPM_P1;HPM_P2
2024/01/25 00:01:41;;;;;;;33.30;17.02;;;;;;;2.97;nan;101025.25;5034177;28;20025;-68
2024/01/25 00:04:06;;;;;;;35.35;17.50;;;;;;;2.99;nan;101031.09;5037901;28;20037;-69
2024/01/25 00:06:32;;;;;;;31.70;17.00;;;;;;;2.95;nan;101022.00;5033249;28;20028;-70
2024/01/25 00:08:57;;;;;;;32.58;16.95;;;;;;;3.01;nan;101033.53;5035531;28;20029;-70
2024/01/25 00:11:22;;;;;;;33.00;16.27;;;;;;;3.04;nan;101034.06;5036634;28;20029;-69
2024/01/25 00:13:48;;;;;;;40.88;17.92;;;;;;;3.00;nan;101018.91;5038750;28;20029;-68
2024/01/25 00:16:13;;;;;;;35.40;17.30;;;;;;;2.97;nan;101018.25;5034798;28;20025;-69
2024/01/25 00:18:39;;;;;;;34.75;17.27;;;;;;;2.96;nan;101013.19;5040664;28;20448;-69
2024/01/25 00:21:04;;;;;;;43.85;18.92;;;;;;;3.09;nan;101038.75;5036262;28;20104;-68
2024/01/25 00:23:30;;;;;;;34.88;17.20;;;;;;;3.09;nan;101034.38;5037989;28;20044;-69
2024/01/25 00:25:58;;;;;;;35.47;17.60;;;;;;;3.03;nan;101031.59;5036658;28;20072;-69
2024/01/25 00:28:24;;;;;;;35.25;17.90;;;;;;;3.06;nan;101029.47;5034214;28;20043;-69
2024/01/25 00:30:50;;;;;;;34.95;18.50;;;;;;;3.04;nan;101028.84;5040809;28;20108;-69
2024/01/25 00:33:15;;;;;;;40.33;19.00;;;;;;;3.04;nan;101021.03;5037822;28;20116;-69
2024/01/25 00:35:41;;;;;;;44.20;18.75;;;;;;;3.02;nan;101022.97;5038286;28;20084;-68
2024/01/25 00:38:07;;;;;;;36.20;19.13;;;;;;;2.92;nan;101017.94;5034018;28;20430;-69
2024/01/25 00:40:33;;;;;;;41.35;18.65;;;;;;;3.01;nan;101031.75;5039882;28;20071;-69
2024/01/25 00:42:58;;;;;;;37.65;19.08;;;;;;;2.98;nan;101038.09;5036153;28;20060;-70
2024/01/25 00:45:24;;;;;;;34.67;16.60;;;;;;;2.92;nan;101030.09;5036238;28;20033;-69
2024/01/25 00:47:51;;;;;;;39.35;18.25;;;;;;;2.90;nan;101037.28;5037094;28;20037;-68
2024/01/25 00:50:17;;;;;;;41.92;19.17;;;;;;;2.63;nan;100994.91;5035707;28;20029;-68
2024/01/25 00:52:44;;;;;;;41.90;18.80;;;;;;;2.88;nan;101029.63;5035802;28;20021;-68
2024/01/25 00:55:10;;;;;;;37.00;19.52;;;;;;;2.85;nan;101032.53;5033882;28;20612;-68
2024/01/25 00:57:36;;;;;;;39.97;19.85;;;;;;;2.77;nan;101017.69;5038231;28;20063;-69
2024/01/25 01:00:02;;;;;;;39.80;20.20;;;;;;;2.75;nan;101013.63;5033385;28;20021;-68
2024/01/25 01:02:31;;;;;;;40.75;19.27;;;;;;;2.68;nan;101000.47;5039770;28;20044;-69
2024/01/25 01:05:00;;;;;;;40.45;21.15;;;;;;;2.77;nan;101016.91;5033752;28;20040;-69
2024/01/25 01:07:25;;;;;;;41.40;20.48;;;;;;;2.75;nan;101014.47;5036405;28;20029;-68
2024/01/25 01:09:51;;;;;;;40.28;20.27;;;;;;;2.52;nan;100975.22;5038291;28;20040;-68
2024/01/25 01:12:17;;;;;;;41.97;20.15;;;;;;;2.70;nan;101002.91;5033507;28;20394;-69
2024/01/25 01:14:43;;;;;;;39.95;19.25;;;;;;;2.79;nan;101019.34;5034746;28;20025;-68
2024/01/25 01:17:08;;;;;;;40.28;19.80;;;;;;;2.81;nan;101017.41;5036143;28;20364;-68
2024/01/25 01:19:33;;;;;;;44.53;20.05;;;;;;;2.81;nan;101012.22;5051558;28;20037;-68
2024/01/25 01:21:59;;;;;;;39.70;19.05;;;;;;;2.77;nan;101004.69;5033032;28;20033;-68
2024/01/25 01:24:24;;;;;;;38.20;19.92;;;;;;;2.79;nan;101008.94;5036289;28;20383;-69
2024/01/25 01:26:50;;;;;;;43.17;20.20;;;;;;;2.73;nan;100998.22;5039045;28;20036;-69
2024/01/25 01:29:17;;;;;;;41.33;20.92;;;;;;;2.74;nan;101007.63;5038186;28;20021;-69
2024/01/25 01:31:42;;;;;;;44.72;21.65;;;;;;;2.63;nan;101005.31;5037537;28;20479;-68
2024/01/25 01:34:08;;;;;;;48.42;22.00;;;;;;;2.59;nan;100995.41;5036151;28;20022;-68
2024/01/25 01:36:33;;;;;;;43.80;21.98;;;;;;;2.65;nan;101011.16;5041850;28;20060;-68
2024/01/25 01:38:59;;;;;;;42.83;20.45;;;;;;;2.63;nan;101002.72;5041080;28;20246;-69
2024/01/25 01:41:25;;;;;;;41.97;20.25;;;;;;;2.66;nan;101006.78;5037802;28;20466;-68
2024/01/25 01:43:54;;;;;;;42.65;19.52;;;;;;;2.52;nan;100984.81;5040343;28;20071;-68
2024/01/25 01:46:37;;;;;;;41.38;19.80;;;;;;;2.66;nan;101006.78;5039752;28;20032;-68
2024/01/25 01:49:04;;;;;;;43.10;20.33;;;;;;;2.55;nan;100979.28;5037983;28;20490;-68
2024/01/25 01:51:31;;;;;;;43.13;20.75;;;;;;;2.64;nan;100998.34;5042572;28;20048;-67
2024/01/25 01:53:57;;;;;;;40.30;19.75;;;;;;;2.55;nan;100984.50;5040484;28;20629;-69
2024/01/25 01:56:28;;;;;;;41.13;19.25;;;;;;;2.60;nan;100982.22;5041415;28;20086;-69
2024/01/25 01:58:57;;;;;;;43.35;19.42;;;;;;;2.63;nan;100981.91;5036579;28;20029;-69
2024/01/25 02:01:24;;;;;;;39.15;17.95;;;;;;;2.51;nan;100964.97;5039518;28;20368;-69
2024/01/25 02:03:50;;;;;;;37.03;18.05;;;;;;;2.58;nan;100965.97;5041364;28;20029;-69
2024/01/25 02:06:15;;;;;;;40.50;19.00;;;;;;;2.58;nan;100963.38;5040129;28;20395;-69
2024/01/25 02:08:41;;;;;;;37.88;17.27;;;;;;;2.60;nan;100958.03;5039351;28;20039;-69
2024/01/25 02:11:07;;;;;;;34.30;16.58;;;;;;;2.63;nan;100963.72;5040085;28;20431;-69
2024/01/25 02:13:33;;;;;;;34.30;16.35;;;;;;;2.57;nan;100956.56;5038050;28;20029;-68
2024/01/25 02:15:58;;;;;;;34.95;16.00;;;;;;;2.59;nan;100946.81;5039240;28;20029;-68
2024/01/25 02:18:24;;;;;;;36.05;15.23;;;;;;;2.58;nan;100946.97;5037871;28;20043;-68
2024/01/25 02:20:50;;;;;;;33.58;15.48;;;;;;;2.62;nan;100954.28;5038529;28;20029;-67
2024/01/25 02:23:15;;;;;;;28.55;13.63;;;;;;;2.57;nan;100930.56;5043349;28;20034;-70
2024/01/25 02:25:40;;;;;;;29.45;13.20;;;;;;;2.75;nan;100946.84;5039493;28;20031;-69
2024/01/25 02:28:06;;;;;;;28.83;11.13;;;;;;;2.79;nan;100933.53;5040137;28;20643;-68
2024/01/25 02:30:31;;;;;;;25.77;11.73;;;;;;;2.87;nan;100929.13;5034953;28;20116;-68
2024/01/25 02:32:57;;;;;;;30.30;11.90;;;;;;;2.97;nan;100940.22;5039921;28;20391;-68
2024/01/25 02:35:22;;;;;;;28.10;11.95;;;;;;;2.90;nan;100936.63;5039459;28;20037;-68
2024/01/25 02:37:48;;;;;;;30.33;12.00;;;;;;;2.99;nan;100942.63;5040793;28;20107;-69
2024/01/25 02:40:13;;;;;;;32.45;12.35;;;;;;;3.02;nan;100951.91;5036752;28;20402;-69
2024/01/25 02:42:39;;;;;;;29.67;12.27;;;;;;;2.99;nan;100945.22;5039098;28;20036;-69
2024/01/25 02:45:04;;;;;;;34.75;12.27;;;;;;;2.94;nan;100937.91;5039115;28;20024;-68
2024/01/25 02:47:30;;;;;;;29.38;12.40;;;;;;;3.03;nan;100950.94;5040950;28;20029;-68
2024/01/25 02:49:55;;;;;;;25.63;10.82;;;;;;;3.03;nan;100962.16;5041812;28;20696;-68
2024/01/25 02:52:21;;;;;;;22.55;10.98;;;;;;;3.02;nan;100951.91;5037778;28;20021;-68
2024/01/25 02:54:46;;;;;;;22.10;10.32;;;;;;;3.02;nan;100957.94;5038814;28;20030;-68
2024/01/25 02:57:12;;;;;;;25.65;9.77;;;;;;;2.96;nan;100945.56;5035417;28;20025;-69
2024/01/25 02:59:37;;;;;;;21.33;9.50;;;;;;;2.91;nan;100946.03;5040326;28;20554;-68
2024/01/25 03:02:02;;;;;;;19.77;8.70;;;;;;;3.01;nan;100961.50;5041482;28;20433;-69
2024/01/25 03:04:28;;;;;;;18.98;8.80;;;;;;;3.12;nan;100971.59;5038999;28;20671;-69
2024/01/25 03:06:53;;;;;;;20.92;8.38;;;;;;;3.13;nan;100973.22;5037757;28;20135;-69
2024/01/25 03:09:21;;;;;;;19.67;7.80;;;;;;;3.14;nan;100972.25;5038486;28;20095;-69
2024/01/25 03:11:46;;;;;;;17.17;7.20;;;;;;;3.21;nan;100980.22;5037193;28;20025;-69
2024/01/25 03:14:12;;;;;;;17.30;7.50;;;;;;;3.24;nan;100976.50;5038674;28;20032;-69
2024/01/25 03:16:37;;;;;;;18.17;7.72;;;;;;;3.12;nan;100955.19;5040052;28;20482;-69
2024/01/25 03:19:03;;;;;;;20.10;8.13;;;;;;;3.28;nan;100965.59;5042006;28;20033;-69
2024/01/25 03:21:29;;;;;;;15.85;6.93;;;;;;;3.26;nan;100967.53;5036753;28;20474;-69
2024/01/25 03:23:54;;;;;;;15.43;6.60;;;;;;;3.28;nan;100954.34;5038481;28;20021;-69
2024/01/25 03:26:19;;;;;;;15.10;7.40;;;;;;;3.31;nan;100956.66;5043591;28;20029;-69
2024/01/25 03:28:45;;;;;;;18.48;6.90;;;;;;;3.35;nan;100963.97;5041654;28;20036;-69
2024/01/25 03:31:10;;;;;;;18.52;6.43;;;;;;;3.23;nan;100941.00;5035991;28;20032;-69
2024/01/25 03:33:36;;;;;;;15.25;6.30;;;;;;;3.39;nan;100961.84;5038143;28;20025;-69
2024/01/25 03:36:03;;;;;;;16.63;6.10;;;;;;;3.34;nan;100948.50;5038478;28;20082;-69
2024/01/25 03:38:28;;;;;;;17.52;6.80;;;;;;;3.36;nan;100951.75;5034799;28;20368;-68
2024/01/25 03:40:55;;;;;;;17.77;6.10;;;;;;;3.41;nan;100954.69;5039124;28;20041;-69
2024/01/25 03:43:20;;;;;;;17.52;6.03;;;;;;;3.35;nan;100945.75;5040543;28;20021;-68
2024/01/25 03:45:47;;;;;;;15.63;5.70;;;;;;;3.47;nan;100961.00;5037038;28;20055;-68
2024/01/25 03:48:12;;;;;;;18.58;6.25;;;;;;;3.43;nan;100955.34;5036005;28;20211;-69
2024/01/25 03:50:38;;;;;;;14.13;5.57;;;;;;;3.41;nan;100954.69;5038271;28;20018;-68
2024/01/25 03:53:03;;;;;;;16.40;5.22;;;;;;;3.47;nan;100959.25;5035129;28;20028;-68
2024/01/25 03:55:29;;;;;;;13.43;5.93;;;;;;;3.44;nan;100962.16;5038229;28;20099;-68
2024/01/25 03:57:54;;;;;;;13.60;5.50;;;;;;;3.46;nan;100960.22;5037514;28;20093;-68
2024/01/25 04:00:20;;;;;;;11.73;5.18;;;;;;;3.46;nan;100962.81;5038115;28;20040;-68
2024/01/25 04:02:45;;;;;;;18.67;4.88;;;;;;;3.50;nan;100963.31;5038074;28;20024;-67
2024/01/25 04:05:11;;;;;;;14.02;5.22;;;;;;;3.40;nan;100943.47;5036155;28;20026;-68
2024/01/25 04:07:36;;;;;;;15.55;4.72;;;;;;;3.50;nan;100958.91;5038185;28;20036;-68
2024/01/25 04:10:02;;;;;;;12.82;4.65;;;;;;;3.19;nan;100904.91;5037350;28;20490;-68
2024/01/25 04:12:27;;;;;;;17.05;5.63;;;;;;;3.49;nan;100954.66;5035406;28;20072;-68
2024/01/25 04:14:52;;;;;;;14.55;4.75;;;;;;;3.66;nan;100981.50;5039564;28;20032;-69
2024/01/25 04:17:18;;;;;;;12.25;4.78;;;;;;;3.64;nan;100973.06;5038209;28;20076;-70
2024/01/25 04:19:43;;;;;;;15.35;5.57;;;;;;;3.58;nan;100956.28;5036467;28;20091;-69
2024/01/25 04:22:09;;;;;;;18.35;5.63;;;;;;;3.68;nan;100971.72;5036084;28;20094;-70
2024/01/25 04:24:34;;;;;;;18.30;6.25;;;;;;;3.74;nan;100980.69;5037598;28;20033;-68
2024/01/25 04:26:59;;;;;;;14.68;4.70;;;;;;;3.73;nan;100973.84;5034498;28;20029;-73
2024/01/25 04:29:25;;;;;;;13.88;4.57;;;;;;;3.74;nan;100967.66;5033582;28;20112;-73
2024/01/25 04:31:50;;;;;;;12.52;4.20;;;;;;;3.81;nan;100979.06;5037008;28;20033;-72
2024/01/25 04:34:16;;;;;;;16.70;5.45;;;;;;;3.88;nan;100995.66;5035837;28;20020;-71
2024/01/25 04:36:42;;;;;;;13.68;3.92;;;;;;;3.86;nan;100963.72;5050612;28;20285;-72
2024/01/25 04:39:07;;;;;;;11.85;3.53;;;;;;;3.83;nan;100958.81;5038727;28;20037;-72
2024/01/25 04:41:33;;;;;;;17.90;5.35;;;;;;;3.94;nan;100968.91;5032200;28;20057;-69
2024/01/25 04:43:58;;;;;;;17.10;5.03;;;;;;;3.99;nan;100979.63;5036127;28;20033;-71
2024/01/25 04:46:23;;;;;;;21.13;5.70;;;;;;;4.02;nan;100979.31;5043683;28;20551;-71
2024/01/25 04:48:49;;;;;;;14.90;4.47;;;;;;;3.98;nan;100966.78;5032991;28;20033;-72
2024/01/25 04:51:22;;;;;;;18.23;4.05;;;;;;;4.01;nan;100967.25;5035834;28;20033;-69
2024/01/25 04:53:47;;;;;;;14.40;3.72;;;;;;;4.11;nan;100974.06;5033020;28;20040;-71
2024/01/25 04:56:12;;;;;;;15.82;4.25;;;;;;;4.09;nan;100968.22;5035743;28;20029;-71
2024/01/25 04:58:38;;;;;;;15.15;4.80;;;;;;;4.15;nan;100977.97;5042075;28;20377;-72
2024/01/25 05:01:04;;;;;;;15.60;4.70;;;;;;;4.18;nan;100981.03;5035248;28;20029;-72
2024/01/25 05:03:30;;;;;;;13.75;5.20;;;;;;;4.20;nan;100980.88;5036405;28;20387;-72
2024/01/25 05:05:56;;;;;;;16.80;6.22;;;;;;;4.08;nan;100967.41;5039332;28;20029;-73
2024/01/25 05:08:21;;;;;;;17.02;7.05;;;;;;;4.14;nan;100984.16;5041485;28;20090;-72
2024/01/25 05:10:47;;;;;;;17.25;6.72;;;;;;;4.15;nan;100980.59;5037529;28;20029;-73
2024/01/25 05:13:12;;;;;;;17.15;6.82;;;;;;;4.08;nan;100970.00;5039296;28;20391;-73
2024/01/25 05:15:38;;;;;;;18.55;7.43;;;;;;;4.11;nan;100972.28;5047350;28;20045;-71
2024/01/25 05:18:04;;;;;;;28.52;14.88;;;;;;;4.12;nan;100976.53;5047344;28;20474;-73
2024/01/25 05:20:32;;;;;;;21.77;8.95;;;;;;;4.18;nan;100985.44;5050742;28;20021;-72
2024/01/25 05:23:02;;;;;;;19.08;8.35;;;;;;;4.14;nan;100985.00;5047276;28;20799;-73
2024/01/25 05:25:28;;;;;;;17.42;7.60;;;;;;;4.11;nan;100976.69;5045478;28;20024;-72
2024/01/25 05:27:54;;;;;;;19.30;7.82;;;;;;;4.22;nan;100989.34;5041191;28;20422;-72
2024/01/25 05:30:29;;;;;;;16.92;6.75;;;;;;;4.28;nan;100996.50;5047053;28;20021;-72
2024/01/25 05:32:55;;;;;;;14.88;7.32;;;;;;;4.25;nan;100995.03;5038717;28;20029;-71
2024/01/25 05:35:20;;;;;;;15.20;6.75;;;;;;;4.32;nan;100991.75;5038533;28;20021;-72
2024/01/25 05:37:46;;;;;;;16.92;7.20;;;;;;;4.32;nan;100986.56;5037518;28;20132;-71
2024/01/25 05:40:12;;;;;;;22.35;7.50;;;;;;;4.24;nan;100974.38;5040374;28;20086;-70
2024/01/25 05:42:38;;;;;;;15.65;6.50;;;;;;;4.31;nan;100988.34;5039481;28;20100;-71
2024/01/25 05:45:03;;;;;;;17.42;6.90;;;;;;;4.43;nan;100989.59;5038496;28;20114;-72
2024/01/25 05:47:30;;;;;;;17.73;7.32;;;;;;;4.47;nan;100990.88;5039318;28;20041;-76
2024/01/25 05:49:56;;;;;;;17.52;7.75;;;;;;;4.41;nan;100982.94;5041025;28;20051;-74
2024/01/25 05:52:22;;;;;;;17.55;7.22;;;;;;;4.39;nan;100979.69;5042061;28;20016;-76
2024/01/25 05:54:48;;;;;;;18.42;6.95;;;;;;;4.38;nan;100978.03;5039699;28;20103;-76
2024/01/25 05:57:14;;;;;;;19.63;6.43;;;;;;;4.44;nan;100985.19;5044292;28;20103;-76
2024/01/25 05:59:39;;;;;;;17.98;6.68;;;;;;;4.53;nan;100991.19;5039072;28;20351;-76
2024/01/25 06:02:05;;;;;;;16.15;6.90;;;;;;;4.52;nan;100999.97;5039332;28;20040;-76
2024/01/25 06:04:31;;;;;;;17.10;6.72;;;;;;;4.51;nan;101003.59;5038409;28;20091;-77
2024/01/25 06:06:56;;;;;;;18.15;6.40;;;;;;;4.44;nan;100988.59;5039551;28;20489;-76
2024/01/25 06:09:22;;;;;;;16.30;6.15;;;;;;;4.59;nan;101016.56;5041386;28;20029;-76
2024/01/25 06:11:48;;;;;;;20.42;7.22;;;;;;;4.62;nan;101005.78;5036699;28;20075;-76
2024/01/25 06:14:13;;;;;;;20.77;7.32;;;;;;;4.60;nan;100998.16;5033323;28;20030;-75
2024/01/25 06:16:39;;;;;;;17.60;6.63;;;;;;;4.49;nan;100977.66;5044666;28;20735;-76
2024/01/25 06:19:04;;;;;;;15.50;5.63;;;;;;;4.68;nan;101002.50;5045584;28;20057;-75
2024/01/25 06:21:30;;;;;;;17.15;6.35;;;;;;;4.63;nan;100999.59;5038954;28;20034;-72
2024/01/25 06:23:55;;;;;;;16.55;6.55;;;;;;;4.65;nan;101003.66;5039339;28;20029;-70
2024/01/25 06:26:20;;;;;;;18.73;8.00;;;;;;;4.61;nan;100994.56;5036919;28;20425;-70
2024/01/25 06:28:46;;;;;;;18.13;6.43;;;;;;;4.72;nan;101016.84;5036235;28;20037;-70
2024/01/25 06:31:11;;;;;;;16.00;6.43;;;;;;;4.74;nan;101008.84;5031333;28;20197;-78
2024/01/25 06:33:40;;;;;;;20.60;6.80;;;;;;;4.70;nan;101005.78;5033455;28;20037;-78
2024/01/25 06:36:05;;;;;;;19.05;6.85;;;;;;;4.79;nan;101016.94;5039593;28;20025;-78
2024/01/25 06:38:31;;;;;;;17.80;6.88;;;;;;;4.79;nan;101014.34;5042265;28;20040;-79
2024/01/25 06:40:56;;;;;;;17.45;6.50;;;;;;;4.75;nan;101008.69;5039624;28;20029;-77
2024/01/25 06:43:22;;;;;;;17.92;6.45;;;;;;;4.68;nan;100995.50;5040371;28;20032;-78
2024/01/25 06:45:47;;;;;;;22.60;6.78;;;;;;;4.76;nan;101001.66;5038028;28;20037;-77
2024/01/25 06:48:12;;;;;;;20.90;7.47;;;;;;;4.82;nan;100996.56;5043268;28;20526;-76
2024/01/25 06:50:38;;;;;;;21.52;7.15;;;;;;;4.88;nan;101008.09;5040161;28;20028;-77
2024/01/25 06:53:04;;;;;;;22.38;7.10;;;;;;;4.77;nan;100991.06;5039437;28;20025;-72
2024/01/25 06:55:29;;;;;;;15.80;6.22;;;;;;;4.82;nan;100996.56;5036893;28;20579;-75
2024/01/25 06:57:55;;;;;;;17.25;5.15;;;;;;;4.84;nan;100994.59;5039430;28;20029;-75
2024/01/25 07:00:20;;;;;;;16.40;4.60;;;;;;;4.88;nan;101003.72;5040599;28;20021;-74
2024/01/25 07:02:47;;;;;;;12.32;3.97;;;;;;;4.99;nan;101012.94;5037638;28;20021;-74
2024/01/25 07:05:12;;;;;;;17.77;4.18;;;;;;;5.09;nan;101023.94;5034050;28;20037;-73
2024/01/25 07:07:38;;;;;;;10.25;3.40;;;;;;;5.16;nan;101018.06;5037321;28;20387;-75
2024/01/25 07:10:05;;;;;;;13.75;3.05;;;;;;;5.08;nan;100991.03;5039677;28;20024;-76
2024/01/25 07:12:30;;;;;;;16.48;3.47;;;;;;;5.17;nan;100988.34;5034978;28;20025;-75
2024/01/25 07:14:56;;;;;;;17.77;4.18;;;;;;;5.23;nan;100985.03;5035804;28;20360;-77
2024/01/25 07:17:21;;;;;;;11.32;3.08;;;;;;;5.33;nan;100996.84;5041863;28;20029;-76
2024/01/25 07:19:47;;;;;;;12.88;3.08;;;;;;;5.42;nan;101013.28;5037960;28;20046;-76
2024/01/25 07:22:14;;;;;;;15.48;3.75;;;;;;;5.36;nan;100979.22;5039264;28;20036;-76
2024/01/25 07:24:40;;;;;;;12.98;3.28;;;;;;;5.44;nan;100981.78;5037722;28;20018;-76
2024/01/25 07:27:05;;;;;;;13.00;3.33;;;;;;;5.54;nan;100990.16;5038440;28;20028;-75
2024/01/25 07:29:31;;;;;;;7.35;2.83;;;;;;;5.58;nan;100986.22;5036906;28;20029;-76
2024/01/25 07:31:56;;;;;;;14.77;3.03;;;;;;;5.53;nan;100976.31;5035581;28;20022;-75
2024/01/25 07:34:21;;;;;;;17.63;3.58;;;;;;;5.66;nan;100996.59;5038769;28;20029;-76
2024/01/25 07:36:47;;;;;;;10.27;2.92;;;;;;;5.61;nan;100985.84;5039998;28;20045;-76
2024/01/25 07:39:12;;;;;;;11.77;3.22;;;;;;;5.71;nan;100989.00;5035416;28;20060;-75
2024/01/25 07:41:38;;;;;;;15.85;3.50;;;;;;;5.73;nan;100997.50;5037962;28;20021;-69
2024/01/25 07:44:03;;;;;;;12.65;3.60;;;;;;;5.80;nan;100997.59;5038017;28;20644;-68
2024/01/25 07:46:29;;;;;;;15.20;4.15;;;;;;;5.71;nan;100980.38;5036668;28;20112;-76
2024/01/25 07:48:55;;;;;;;18.00;3.65;;;;;;;5.82;nan;100990.41;5037688;28;20083;-76
2024/01/25 07:51:20;;;;;;;15.95;3.10;;;;;;;5.86;nan;100990.84;5035751;28;20086;-75
2024/01/25 07:53:46;;;;;;;12.05;3.10;;;;;;;5.91;nan;100991.94;5037502;28;20083;-75
2024/01/25 07:56:11;;;;;;;11.40;3.00;;;;;;;5.95;nan;101002.88;5035859;28;20033;-76
2024/01/25 07:58:37;;;;;;;19.48;4.90;;;;;;;5.72;nan;100967.13;5039442;28;20041;-78
2024/01/25 08:01:06;;;;;;;13.77;3.72;;;;;;;5.98;nan;100992.03;5039094;28;20752;-76
2024/01/25 08:03:32;;;;;;;17.45;3.85;;;;;;;6.03;nan;100989.69;5036640;28;20039;-74
2024/01/25 08:05:59;;;;;;;16.73;4.93;;;;;;;6.00;nan;100968.34;5036501;28;20040;-78
2024/01/25 08:08:24;;;;;;;15.90;3.90;;;;;;;6.01;nan;100973.41;5035935;28;20033;-77
2024/01/25 08:10:49;;;;;;;13.90;4.47;;;;;;;6.12;nan;100986.00;5035329;28;20394;-76
2024/01/25 08:13:15;;;;;;;12.32;3.47;;;;;;;6.21;nan;100991.16;5036944;28;20481;-78
2024/01/25 08:15:40;;;;;;;15.50;3.30;;;;;;;6.24;nan;101001.25;5038000;28;20437;-76
2024/01/25 08:18:06;;;;;;;11.23;3.47;;;;;;;6.30;nan;100990.88;5037210;28;20116;-70
2024/01/25 08:20:31;;;;;;;17.52;3.72;;;;;;;6.27;nan;100986.00;5040808;28;20036;-69
2024/01/25 08:22:57;;;;;;;14.93;3.65;;;;;;;6.26;nan;100979.16;5036893;28;20045;-71
2024/01/25 08:25:23;;;;;;;16.33;3.60;;;;;;;6.37;nan;100990.97;5037617;28;20052;-73
2024/01/25 08:27:49;;;;;;;15.13;4.25;;;;;;;6.49;nan;100997.34;5041045;28;20550;-72
2024/01/25 08:30:14;;;;;;;15.75;3.33;;;;;;;6.58;nan;100998.88;5039227;28;20036;-71
2024/01/25 08:32:40;;;;;;;12.98;3.15;;;;;;;;;;5036778;28;20024;-71
2024/01/25 08:35:05;;;;;;;12.85;3.63;;;;;;;;;;5036504;28;20033;-70
2024/01/25 08:37:31;;;;;;;15.07;3.65;;;;;;;;;;5031787;28;20071;-71
2024/01/25 08:39:56;;;;;;;19.88;3.80;;;;;;;;;;5035745;28;20376;-70
2024/01/25 08:42:21;;;;;;;10.93;2.90;;;;;;;;;;5038097;28;20028;-72
2024/01/25 08:44:50;;;;;;;15.85;3.45;;;;;;;6.84;nan;100994.91;5042327;28;20044;-71
2024/01/25 08:47:18;;;;;;;13.90;3.25;;;;;;;;;;5044530;28;20100;-71
2024/01/25 08:49:43;;;;;;;12.35;2.88;;;;;;;;;;5041728;28;20048;-70
2024/01/25 08:52:09;;;;;;;13.25;2.70;;;;;;;7.32;nan;101052.78;5042850;28;20115;-71
2024/01/25 08:54:36;;;;;;;14.38;4.03;;;;;;;7.01;nan;101001.53;5041320;28;20032;-72
2024/01/25 08:57:03;;;;;;;12.18;3.03;;;;;;;7.18;nan;101017.81;5042924;28;20029;-71
2024/01/25 08:59:30;;;;;;;12.63;3.58;;;;;;;7.17;nan;101012.75;5040656;28;20029;-69
2024/01/25 09:01:56;;;;;;;17.45;3.80;;;;;;;7.20;nan;101007.94;5040774;28;20024;-70
2024/01/25 09:04:21;;;;;;;17.90;5.07;;;;;;;7.31;nan;101011.09;5043921;28;20029;-69
2024/01/25 09:06:47;;;;;;;21.52;5.10;;;;;;;7.32;nan;101021.34;5043157;28;20406;-69
2024/01/25 09:09:12;;;;;;;12.07;3.85;;;;;;;7.34;nan;101002.84;5043281;28;21028;-68
2024/01/25 09:11:38;;;;;;;15.40;5.20;;;;;;;7.42;nan;101021.03;5057209;28;20535;-68
2024/01/25 09:14:03;;;;;;;17.35;4.45;;;;;;;7.43;nan;101014.81;5040287;28;20086;-68
2024/01/25 09:16:29;;;;;;;17.77;4.50;;;;;;;7.43;nan;101002.53;5042444;28;20029;-66
2024/01/25 09:18:54;;;;;;;15.93;3.60;;;;;;;7.53;nan;101009.25;5044295;28;20467;-67
2024/01/25 09:21:19;;;;;;;15.75;4.05;;;;;;;7.54;nan;101009.06;5042710;28;20469;-66
2024/01/25 09:23:45;;;;;;;14.48;4.00;;;;;;;7.58;nan;101002.44;5045781;28;20052;-67
2024/01/25 09:26:10;;;;;;;13.85;4.50;;;;;;;7.60;nan;100999.63;5044855;28;20056;-67
2024/01/25 09:28:36;;;;;;;15.73;4.05;;;;;;;7.56;nan;100985.28;5046940;28;20033;-66
2024/01/25 09:31:02;;;;;;;19.00;4.00;;;;;;;7.67;nan;100992.63;5045608;28;20028;-67
2024/01/25 09:33:29;;;;;;;15.25;3.50;;;;;;;7.76;nan;101011.66;5040850;28;20032;-66
2024/01/25 09:35:55;;;;;;;12.55;3.75;;;;;;;7.73;nan;101015.44;5043326;28;20029;-68
2024/01/25 09:38:21;;;;;;;11.77;4.20;;;;;;;7.75;nan;101000.34;5042339;28;20029;-71
2024/01/25 09:40:47;;;;;;;12.88;3.58;;;;;;;7.82;nan;101006.44;5042873;28;20029;-69
2024/01/25 09:43:13;;;;;;;14.20;3.47;;;;;;;7.88;nan;101013.53;5055792;28;20035;-68
2024/01/25 09:45:41;;;;;;;12.90;3.92;;;;;;;7.88;nan;100989.13;5042654;28;20025;-67
2024/01/25 09:48:07;;;;;;;14.27;3.40;;;;;;;8.06;nan;100986.00;5043747;28;20029;-68
2024/01/25 09:50:33;;;;;;;14.50;3.80;;;;;;;8.10;nan;100974.94;5046106;28;20047;-70
2024/01/25 09:53:00;;;;;;;12.23;3.15;;;;;;;8.28;nan;100997.22;5044326;28;20111;-68
2024/01/25 09:55:26;;;;;;;13.65;3.55;;;;;;;8.25;nan;100985.28;5039088;28;20029;-68
2024/01/25 09:57:56;;;;;;;15.85;3.13;;;;;;;8.18;nan;100955.59;5037834;28;20395;-69
2024/01/25 10:00:22;;;;;;;10.93;2.95;;;;;;;8.36;nan;100975.25;5040191;28;20044;-69
2024/01/25 10:02:49;;;;;;;11.00;2.60;;;;;;;;;;5037531;28;20080;-69
2024/01/25 10:05:14;;;;;;;15.43;3.10;;;;;;;;;;5042078;28;20708;-69
2024/01/25 10:07:43;;;;;;;14.32;3.53;;;;;;;;;;5041175;28;20025;-68
2024/01/25 10:10:09;;;;;;;13.30;3.17;;;;;;;;;;5035596;28;20026;-69
2024/01/25 10:12:35;;;;;;;13.57;3.25;;;;;;;;;;5038266;28;20090;-68
2024/01/25 10:15:00;;;;;;;14.05;4.32;;;;;;;;;;5042641;28;20025;-69
2024/01/25 10:17:26;;;;;;;11.02;2.72;;;;;;;;;;5038239;28;20041;-69
2024/01/25 10:19:51;;;;;;;13.18;2.95;;;;;;;;;;5042540;28;20024;-69
2024/01/25 10:22:18;;;;;;;13.77;3.00;;;;;;;8.93;nan;100956.47;5039303;28;20021;-76
2024/01/25 10:24:44;;;;;;;13.07;2.63;;;;;;;;;;5036954;28;20036;-77
2024/01/25 10:27:10;;;;;;;15.98;3.58;;;;;;;9.19;nan;100951.41;5039272;28;20026;-77
2024/01/25 10:29:36;;;;;;;17.38;3.22;;;;;;;9.15;nan;100949.19;5052609;28;20052;-76
2024/01/25 10:32:03;;;;;;;11.75;3.03;;;;;;;9.11;nan;100928.78;5039448;28;20052;-74
2024/01/25 10:34:29;;;;;;;13.00;2.80;;;;;;;9.21;nan;100938.88;5039315;28;20034;-74
2024/01/25 10:36:55;;;;;;;14.65;3.03;;;;;;;;;;5039802;28;20076;-75
2024/01/25 10:39:21;;;;;;;15.75;3.22;;;;;;;;;;5047383;28;20541;-74
2024/01/25 10:41:50;;;;;;;16.77;3.22;;;;;;;;;;5037503;28;20554;-75
2024/01/25 10:44:15;;;;;;;16.42;3.40;;;;;;;;;;5036945;28;20033;-75
2024/01/25 10:46:41;;;;;;;11.55;2.83;;;;;;;;;;5039356;28;20037;-75
2024/01/25 10:49:07;;;;;;;11.45;2.67;;;;;;;;;;5037954;28;20031;-74
2024/01/25 10:51:33;;;;;;;14.50;2.85;;;;;;;;;;5039669;28;20391;-73
2024/01/25 10:53:59;;;;;;;13.75;3.10;;;;;;;;;;5036818;28;20104;-74
2024/01/25 10:56:24;;;;;;;12.18;2.65;;;;;;;;;;5034931;28;20084;-73
2024/01/25 10:58:50;;;;;;;17.65;3.67;;;;;;;9.68;nan;100921.25;5036139;28;20021;-74
2024/01/25 11:01:17;;;;;;;12.32;2.70;;;;;;;9.77;nan;100928.72;5038221;28;20494;-72
2024/01/25 11:03:48;;;;;;;12.55;2.67;;;;;;;9.73;nan;100919.63;5035862;28;20391;-74
2024/01/25 11:06:14;;;;;;;10.85;2.72;;;;;;;9.67;nan;100914.34;5039510;28;20129;-73
2024/01/25 11:08:40;;;;;;;11.13;2.15;;;;;;;9.70;nan;100914.78;5037438;28;20119;-73
2024/01/25 11:11:08;;;;;;;8.95;2.72;;;;;;;9.82;nan;100927.25;5038896;28;20025;-72
2024/01/25 11:13:33;;;;;;;13.90;3.15;;;;;;;9.80;nan;100909.88;5038145;28;20025;-73
2024/01/25 11:15:59;;;;;;;12.55;2.80;;;;;;;9.76;nan;100903.41;5036271;28;20098;-73
2024/01/25 11:18:27;;;;;;;15.25;3.00;;;;;;;9.86;nan;100910.88;5034420;28;20027;-73
2024/01/25 11:20:53;;;;;;;14.82;2.60;;;;;;;9.83;nan;100906.03;5037521;28;20049;-73
2024/01/25 11:23:18;;;;;;;13.43;3.10;;;;;;;9.88;nan;100918.56;5038422;28;20067;-72
2024/01/25 11:25:46;;;;;;;15.82;3.15;;;;;;;9.90;nan;100896.28;5036653;28;20409;-74
2024/01/25 11:28:15;;;;;;;15.75;3.10;;;;;;;9.89;nan;100917.53;5036233;28;20030;-75
2024/01/25 11:30:42;;;;;;;12.15;2.75;;;;;;;9.88;nan;100908.84;5037957;28;20390;-73
2024/01/25 11:33:08;;;;;;;9.48;2.28;;;;;;;9.92;nan;100914.50;5036604;28;20036;-67
2024/01/25 11:35:33;;;;;;;10.27;2.72;;;;;;;9.96;nan;100918.31;5037054;28;20033;-69
2024/01/25 11:38:00;;;;;;;13.43;3.03;;;;;;;9.85;nan;100904.00;5034172;28;20041;-69
2024/01/25 11:40:25;;;;;;;15.35;3.33;;;;;;;10.03;nan;100913.84;5037447;28;20107;-70
2024/01/25 11:42:51;;;;;;;16.35;3.53;;;;;;;10.09;nan;100913.03;5038766;28;20036;-69
2024/01/25 11:45:17;;;;;;;10.77;2.83;;;;;;;10.08;nan;100913.22;5034714;28;20550;-69